createdAt,value
2019-06-27T00:01:34.315Z,17.30
2019-06-27T00:04:02.660Z,19.00
2019-06-27T00:06:31.025Z,17.63
2019-06-27T00:08:59.697Z,19.63
2019-06-27T00:11:28.518Z,18.83
2019-06-27T00:13:56.866Z,18.37
2019-06-27T00:16:25.677Z,19.17
2019-06-27T00:18:54.236Z,21.20
2019-06-27T00:21:23.054Z,18.13
2019-06-27T00:23:52.346Z,17.73
2019-06-27T00:26:21.148Z,17.13
2019-06-27T00:28:51.162Z,17.30
2019-06-27T00:31:20.333Z,19.37
2019-06-27T00:33:48.954Z,17.57
2019-06-27T00:36:18.094Z,20.83
2019-06-27T00:38:49.441Z,18.93
2019-06-27T00:41:18.123Z,18.77
2019-06-27T00:43:47.269Z,19.13
2019-06-27T00:46:15.549Z,20.53
2019-06-27T00:48:43.920Z,20.63
2019-06-27T00:51:12.570Z,22.63
2019-06-27T00:53:41.031Z,18.20
2019-06-27T00:56:09.253Z,20.77
2019-06-27T00:58:37.730Z,18.77
2019-06-27T01:01:06.105Z,18.97
2019-06-27T01:03:37.645Z,19.73
2019-06-27T01:06:24.727Z,19.87
2019-06-27T01:08:53.215Z,19.07
2019-06-27T01:11:22.093Z,20.80
2019-06-27T01:13:51.735Z,21.77
2019-06-27T01:16:20.740Z,19.60
2019-06-27T01:18:49.171Z,18.37
2019-06-27T01:21:17.513Z,18.30
2019-06-27T01:23:45.787Z,21.00
2019-06-27T01:26:14.720Z,23.80
2019-06-27T01:28:43.501Z,24.27
2019-06-27T01:31:12.045Z,21.53
2019-06-27T01:33:40.364Z,19.20
2019-06-27T01:36:10.172Z,25.17
2019-06-27T01:38:40.248Z,19.97
2019-06-27T01:41:08.392Z,19.83
2019-06-27T01:43:36.708Z,22.20
2019-06-27T01:46:06.194Z,22.27
2019-06-27T01:48:34.536Z,20.80
2019-06-27T01:51:02.952Z,23.87
2019-06-27T01:53:31.388Z,21.67
2019-06-27T01:55:59.837Z,21.07
2019-06-27T01:58:28.213Z,23.43
2019-06-27T02:00:56.813Z,21.80
2019-06-27T02:03:25.543Z,21.77
2019-06-27T02:05:53.957Z,21.97
2019-06-27T02:08:24.027Z,23.97
2019-06-27T02:10:52.679Z,21.97
2019-06-27T02:13:22.552Z,22.80
2019-06-27T02:15:51.191Z,22.37
2019-06-27T02:18:20.739Z,22.27
2019-06-27T02:20:49.568Z,25.63
2019-06-27T02:23:17.919Z,21.90
2019-06-27T02:25:46.424Z,21.63
2019-06-27T02:28:14.561Z,24.77
2019-06-27T02:30:43.485Z,21.07
2019-06-27T02:33:11.887Z,21.40
2019-06-27T02:35:40.073Z,22.47
2019-06-27T02:38:08.621Z,22.33
2019-06-27T02:40:40.247Z,22.40
2019-06-27T02:43:08.431Z,21.93
2019-06-27T02:45:37.209Z,22.00
2019-06-27T02:48:05.640Z,23.17
2019-06-27T02:50:34.963Z,23.03
2019-06-27T02:53:03.765Z,22.30
2019-06-27T02:55:33.073Z,25.47
2019-06-27T02:58:01.443Z,25.37
2019-06-27T03:00:29.925Z,26.67
2019-06-27T03:02:59.483Z,23.00
2019-06-27T03:05:29.274Z,22.87
2019-06-27T03:07:58.254Z,22.63
2019-06-27T03:10:26.643Z,23.60
2019-06-27T03:12:54.986Z,21.97
2019-06-27T03:15:23.665Z,23.40
2019-06-27T03:17:52.453Z,24.97
2019-06-27T03:20:20.547Z,22.23
2019-06-27T03:22:49.322Z,24.63
2019-06-27T03:25:17.640Z,23.73
2019-06-27T03:27:46.325Z,23.90
2019-06-27T03:30:14.602Z,22.63
2019-06-27T03:32:43.389Z,22.20
2019-06-27T03:35:12.402Z,22.07
2019-06-27T03:37:42.273Z,23.50
2019-06-27T03:40:12.671Z,23.03
2019-06-27T03:42:41.098Z,23.13
2019-06-27T03:45:15.101Z,23.30
2019-06-27T03:47:40.151Z,21.30
2019-06-27T03:50:08.460Z,20.77
2019-06-27T03:52:37.915Z,19.97
2019-06-27T03:55:06.900Z,23.80
2019-06-27T03:57:35.180Z,21.03
2019-06-27T04:00:04.037Z,20.97
2019-06-27T04:02:42.862Z,19.40
2019-06-27T04:05:11.165Z,24.17
2019-06-27T04:07:40.194Z,18.83
2019-06-27T04:10:10.199Z,20.87
2019-06-27T04:12:38.713Z,23.50
2019-06-27T04:15:07.400Z,23.10
2019-06-27T04:17:35.980Z,21.53
2019-06-27T04:20:04.921Z,27.10
2019-06-27T04:22:33.870Z,19.00
2019-06-27T04:25:02.456Z,20.47
2019-06-27T04:27:32.007Z,17.03
2019-06-27T04:30:00.361Z,17.83
2019-06-27T04:32:28.735Z,20.13
2019-06-27T04:34:57.213Z,19.13
2019-06-27T04:37:27.050Z,17.70
2019-06-27T04:39:55.863Z,17.30
2019-06-27T04:42:24.705Z,20.47
2019-06-27T04:44:53.590Z,15.90
2019-06-27T04:47:22.662Z,19.07
2019-06-27T04:49:51.383Z,17.53
2019-06-27T04:52:19.863Z,18.53
2019-06-27T04:54:49.981Z,20.27
2019-06-27T04:57:20.237Z,15.43
2019-06-27T04:59:53.917Z,16.77
2019-06-27T05:02:20.396Z,18.43
2019-06-27T05:04:48.904Z,17.20
2019-06-27T05:07:17.983Z,14.63
2019-06-27T05:09:46.519Z,16.33
2019-06-27T05:12:15.331Z,16.73
2019-06-27T05:14:43.871Z,19.30
2019-06-27T05:17:12.438Z,17.07
2019-06-27T05:19:40.567Z,16.43
2019-06-27T05:22:08.802Z,15.60
2019-06-27T05:24:37.080Z,14.27
2019-06-27T05:27:05.276Z,18.27
2019-06-27T05:29:34.124Z,15.67
2019-06-27T05:32:02.764Z,16.23
2019-06-27T05:34:31.401Z,14.30
2019-06-27T05:36:59.940Z,17.03
2019-06-27T05:39:28.266Z,15.63
2019-06-27T05:41:57.550Z,15.60
2019-06-27T05:44:25.905Z,15.47
2019-06-27T05:46:54.352Z,15.97
2019-06-27T05:49:23.335Z,15.57
2019-06-27T05:51:51.646Z,16.30
2019-06-27T05:54:20.399Z,15.23
2019-06-27T05:56:48.771Z,15.30
2019-06-27T05:59:17.679Z,16.07
2019-06-27T06:01:46.183Z,16.20
2019-06-27T06:04:14.670Z,17.73
2019-06-27T06:06:43.200Z,14.93
2019-06-27T06:09:11.749Z,15.70
2019-06-27T06:11:40.387Z,15.17
2019-06-27T06:14:08.711Z,15.63
2019-06-27T06:16:37.243Z,14.47
2019-06-27T06:19:05.619Z,15.43
2019-06-27T06:21:33.826Z,15.30
2019-06-27T06:24:03.536Z,14.30
2019-06-27T06:26:32.531Z,14.77
2019-06-27T06:29:00.656Z,14.57
2019-06-27T06:31:29.299Z,15.30
2019-06-27T06:33:57.722Z,15.00
2019-06-27T06:36:26.488Z,15.50
2019-06-27T06:38:55.513Z,15.33
2019-06-27T06:41:24.085Z,15.90
2019-06-27T06:43:52.420Z,15.47
2019-06-27T06:46:20.613Z,14.53
2019-06-27T06:48:49.207Z,14.93
2019-06-27T06:51:17.484Z,15.07
2019-06-27T06:53:46.088Z,15.00
2019-06-27T06:56:14.571Z,16.00
2019-06-27T06:58:44.602Z,15.37
2019-06-27T07:01:13.568Z,15.13
2019-06-27T07:03:41.927Z,15.43
2019-06-27T07:06:10.243Z,18.07
2019-06-27T07:08:38.630Z,16.03
2019-06-27T07:11:06.925Z,14.97
2019-06-27T07:13:35.215Z,14.40
2019-06-27T07:16:04.652Z,14.60
2019-06-27T07:18:33.197Z,13.97
2019-06-27T07:21:01.832Z,14.90
2019-06-27T07:23:30.943Z,16.40
2019-06-27T07:25:59.522Z,14.27
2019-06-27T07:28:27.764Z,15.43
2019-06-27T07:30:56.373Z,15.57
2019-06-27T07:33:24.781Z,14.53
2019-06-27T07:35:53.775Z,14.47
2019-06-27T07:38:23.809Z,14.73
2019-06-27T07:40:52.163Z,14.10
2019-06-27T07:43:20.670Z,14.50
2019-06-27T07:45:49.325Z,14.30
2019-06-27T07:48:17.690Z,13.77
2019-06-27T07:50:47.119Z,16.73
2019-06-27T07:53:15.781Z,13.77
2019-06-27T07:55:44.039Z,13.83
2019-06-27T07:58:12.468Z,14.73
2019-06-27T08:00:40.819Z,13.50
2019-06-27T08:03:09.638Z,14.00
2019-06-27T08:05:37.984Z,13.87
2019-06-27T08:08:06.607Z,14.47
2019-06-27T08:10:35.016Z,14.07
2019-06-27T08:13:03.243Z,13.60
2019-06-27T08:15:31.907Z,13.43
2019-06-27T08:18:00.215Z,13.10
2019-06-27T08:20:29.085Z,12.57
2019-06-27T08:22:57.400Z,13.43
2019-06-27T08:25:25.819Z,14.63
2019-06-27T08:27:54.097Z,13.77
2019-06-27T08:30:22.335Z,15.90
2019-06-27T08:32:50.613Z,14.20
2019-06-27T08:35:18.889Z,13.47
2019-06-27T08:37:47.284Z,12.73
2019-06-27T08:40:16.242Z,12.30
2019-06-27T08:42:44.533Z,12.60
2019-06-27T08:45:13.537Z,12.60
2019-06-27T08:47:42.662Z,12.60
2019-06-27T08:50:11.877Z,13.80
2019-06-27T08:52:40.072Z,12.93
2019-06-27T08:55:10.627Z,11.88
2019-06-27T08:57:38.958Z,11.55
2019-06-27T09:00:07.792Z,11.13
2019-06-27T09:02:36.056Z,12.55
2019-06-27T09:05:04.352Z,11.83
2019-06-27T09:07:32.834Z,11.38
2019-06-27T09:10:02.353Z,12.05
2019-06-27T09:12:30.852Z,11.43
2019-06-27T09:14:59.017Z,11.33
2019-06-27T09:17:27.712Z,12.15
2019-06-27T09:19:56.661Z,11.03
2019-06-27T09:22:25.369Z,12.60
2019-06-27T09:24:54.313Z,12.37
2019-06-27T09:27:22.633Z,14.67
2019-06-27T09:29:50.876Z,12.10
2019-06-27T09:32:25.528Z,11.33
2019-06-27T09:34:49.991Z,10.35
2019-06-27T09:37:18.512Z,11.57
2019-06-27T09:39:46.963Z,11.45
2019-06-27T09:42:15.275Z,11.30
2019-06-27T09:44:43.721Z,10.57
2019-06-27T09:47:12.306Z,10.88
2019-06-27T09:49:40.989Z,11.20
2019-06-27T09:52:09.462Z,10.65
2019-06-27T09:54:38.045Z,11.57
2019-06-27T09:57:07.761Z,10.78
2019-06-27T09:59:36.028Z,11.00
2019-06-27T10:02:05.532Z,10.82
2019-06-27T10:04:33.738Z,10.97
2019-06-27T10:07:02.513Z,10.65
2019-06-27T10:09:31.720Z,9.90
2019-06-27T10:12:00.084Z,11.28
2019-06-27T10:14:28.554Z,10.70
2019-06-27T10:16:58.708Z,10.20
2019-06-27T10:19:28.361Z,10.93
2019-06-27T10:21:56.779Z,10.60
2019-06-27T10:24:25.023Z,10.72
2019-06-27T10:26:53.402Z,11.30
2019-06-27T10:29:21.779Z,11.20
2019-06-27T10:31:50.743Z,11.05
2019-06-27T10:34:18.960Z,10.48
2019-06-27T10:36:47.511Z,10.85
2019-06-27T10:39:16.088Z,10.63
2019-06-27T10:41:44.566Z,10.72
2019-06-27T10:44:12.844Z,10.58
2019-06-27T10:46:41.802Z,10.18
2019-06-27T10:49:12.181Z,10.05
2019-06-27T10:51:42.227Z,10.60
2019-06-27T10:54:10.869Z,9.95
2019-06-27T10:56:40.372Z,12.73
2019-06-27T10:59:08.576Z,10.30
2019-06-27T11:01:36.836Z,8.95
2019-06-27T11:04:05.089Z,8.83
2019-06-27T11:06:33.467Z,8.85
2019-06-27T11:09:04.756Z,9.68
2019-06-27T11:11:33.062Z,9.18
2019-06-27T11:14:02.421Z,8.53
2019-06-27T11:16:31.160Z,8.10
2019-06-27T11:18:59.844Z,7.87
2019-06-27T11:21:28.265Z,7.73
2019-06-27T11:23:56.590Z,9.93
2019-06-27T11:26:25.394Z,8.23
2019-06-27T11:28:53.808Z,8.90
2019-06-27T11:31:22.361Z,11.10
2019-06-27T11:33:50.891Z,9.43
2019-06-27T11:36:19.330Z,10.40
2019-06-27T11:38:48.131Z,9.53
2019-06-27T11:41:16.401Z,10.10
2019-06-27T11:43:44.950Z,8.03
2019-06-27T11:46:13.521Z,7.50
2019-06-27T11:48:41.952Z,8.13
2019-06-27T11:51:11.834Z,9.43
2019-06-27T11:53:40.215Z,11.07
2019-06-27T11:56:08.585Z,17.93
2019-06-27T11:58:36.969Z,10.30
2019-06-27T12:01:05.388Z,10.33
2019-06-27T12:03:48.357Z,11.53
2019-06-27T12:06:03.913Z,13.33
2019-06-27T12:08:32.500Z,9.03
2019-06-27T12:11:01.178Z,9.33
2019-06-27T12:13:30.402Z,9.20
2019-06-27T12:15:58.731Z,10.63
2019-06-27T12:18:27.108Z,8.50
2019-06-27T12:20:55.798Z,10.70
2019-06-27T12:23:24.323Z,8.73
2019-06-27T12:25:52.750Z,8.47
2019-06-27T12:28:21.730Z,7.97
2019-06-27T12:30:50.220Z,8.17
2019-06-27T12:33:19.908Z,10.53
2019-06-27T12:35:48.637Z,11.70
2019-06-27T12:38:17.316Z,9.10
2019-06-27T12:40:47.263Z,11.30
2019-06-27T12:43:15.831Z,10.63
2019-06-27T12:45:44.324Z,7.80
2019-06-27T12:48:13.028Z,9.13
2019-06-27T12:50:41.296Z,8.20
2019-06-27T12:53:11.092Z,8.47
2019-06-27T12:55:39.793Z,10.20
2019-06-27T12:58:08.240Z,7.80
2019-06-27T13:00:36.879Z,7.90
2019-06-27T13:03:05.108Z,8.90
2019-06-27T13:05:33.576Z,9.90
2019-06-27T13:08:02.046Z,8.07
2019-06-27T13:10:35.849Z,12.77
2019-06-27T13:13:04.758Z,8.73
2019-06-27T13:15:33.057Z,9.70
2019-06-27T13:18:01.766Z,9.27
2019-06-27T13:20:30.054Z,9.17
2019-06-27T13:22:58.391Z,10.27
2019-06-27T13:25:26.922Z,9.90
2019-06-27T13:27:56.565Z,9.23
2019-06-27T13:30:24.833Z,10.90
2019-06-27T13:32:53.417Z,11.70
2019-06-27T13:35:23.024Z,11.17
2019-06-27T13:37:51.271Z,12.13
2019-06-27T13:40:19.630Z,12.00
2019-06-27T13:42:47.991Z,12.63
2019-06-27T13:45:18.426Z,14.87
2019-06-27T13:47:46.627Z,12.17
2019-06-27T13:50:15.347Z,13.30
2019-06-27T13:52:44.793Z,11.83
2019-06-27T13:55:14.251Z,12.30
2019-06-27T13:57:43.522Z,11.50
2019-06-27T14:00:12.740Z,11.97
2019-06-27T14:02:41.605Z,11.90
2019-06-27T14:05:13.034Z,12.53
2019-06-27T14:07:43.217Z,13.00
2019-06-27T14:10:11.642Z,13.47
2019-06-27T14:12:44.651Z,13.20
2019-06-27T14:15:12.068Z,14.50
2019-06-27T14:17:42.329Z,13.27
2019-06-27T14:20:10.997Z,13.83
2019-06-27T14:22:39.342Z,13.70
2019-06-27T14:25:08.418Z,14.80
2019-06-27T14:27:38.848Z,13.80
2019-06-27T14:30:07.597Z,14.23
2019-06-27T14:32:35.871Z,13.97
2019-06-27T14:35:15.559Z,12.83
2019-06-27T14:37:38.521Z,13.60
2019-06-27T14:40:07.196Z,13.50
2019-06-27T14:42:36.003Z,14.63
2019-06-27T14:45:05.294Z,13.10
2019-06-27T14:47:35.418Z,14.27
2019-06-27T14:50:04.085Z,13.87
2019-06-27T14:52:34.791Z,13.33
2019-06-27T14:55:02.894Z,13.60
2019-06-27T14:57:31.579Z,13.80
2019-06-27T14:59:59.809Z,13.60
2019-06-27T15:02:28.574Z,14.37
2019-06-27T15:04:57.525Z,15.00
2019-06-27T15:07:26.190Z,12.97
2019-06-27T15:09:55.063Z,11.67
2019-06-27T15:12:23.958Z,12.10
2019-06-27T15:14:52.914Z,11.70
2019-06-27T15:17:21.519Z,12.47
2019-06-27T15:19:50.184Z,11.80
2019-06-27T15:22:18.745Z,11.43
2019-06-27T15:24:47.587Z,10.53
2019-06-27T15:27:16.907Z,10.50
2019-06-27T15:29:45.852Z,11.70
2019-06-27T15:32:14.698Z,9.70
2019-06-27T15:34:44.334Z,10.80
2019-06-27T15:37:12.880Z,9.93
2019-06-27T15:39:42.284Z,9.80
2019-06-27T15:42:12.310Z,9.63
2019-06-27T15:44:41.013Z,9.53
2019-06-27T15:47:10.052Z,8.90
2019-06-27T15:49:38.592Z,9.00
2019-06-27T15:52:07.198Z,9.93
2019-06-27T15:54:35.691Z,9.73
2019-06-27T15:57:04.066Z,9.77
2019-06-27T15:59:32.431Z,9.23
2019-06-27T16:02:00.856Z,9.37
2019-06-27T16:04:34.223Z,9.87
2019-06-27T16:07:00.017Z,9.27
2019-06-27T16:09:28.547Z,8.53
2019-06-27T16:11:57.166Z,8.00
2019-06-27T16:14:25.871Z,7.77
2019-06-27T16:16:54.144Z,8.40
2019-06-27T16:19:22.640Z,7.70
2019-06-27T16:21:51.009Z,7.00
2019-06-27T16:24:20.022Z,7.30
2019-06-27T16:26:48.480Z,7.17
2019-06-27T16:29:17.291Z,6.53
2019-06-27T16:31:45.603Z,7.10
2019-06-27T16:34:13.953Z,6.87
2019-06-27T16:36:42.195Z,7.10
2019-06-27T16:39:11.584Z,7.00
2019-06-27T16:41:39.983Z,6.43
2019-06-27T16:44:08.404Z,7.83
2019-06-27T16:46:36.826Z,8.70
2019-06-27T16:49:05.652Z,5.87
2019-06-27T16:51:34.183Z,5.53
2019-06-27T16:54:03.433Z,5.77
2019-06-27T16:56:32.533Z,6.33
2019-06-27T16:59:00.828Z,5.17
2019-06-27T17:01:29.313Z,7.43
2019-06-27T17:03:57.561Z,4.67
2019-06-27T17:06:40.859Z,4.83
2019-06-27T17:08:56.046Z,6.80
2019-06-27T17:11:25.067Z,5.23
2019-06-27T17:13:55.778Z,4.80
2019-06-27T17:16:24.270Z,5.03
2019-06-27T17:18:54.022Z,4.70
2019-06-27T17:21:22.695Z,5.20
2019-06-27T17:23:51.054Z,4.20
2019-06-27T17:26:19.751Z,4.70
2019-06-27T17:28:48.506Z,5.70
2019-06-27T17:31:16.981Z,3.53
2019-06-27T17:33:48.919Z,4.00
2019-06-27T17:36:17.782Z,3.83
2019-06-27T17:38:47.303Z,3.07
2019-06-27T17:41:16.558Z,3.17
2019-06-27T17:43:45.779Z,4.80
2019-06-27T17:46:14.233Z,5.77
2019-06-27T17:48:42.636Z,4.77
2019-06-27T17:51:11.268Z,3.00
2019-06-27T17:53:39.989Z,2.90
2019-06-27T17:56:08.284Z,2.37
2019-06-27T17:58:36.903Z,2.77
2019-06-27T18:01:05.165Z,3.17
2019-06-27T18:03:33.999Z,3.30
2019-06-27T18:06:02.409Z,3.10
2019-06-27T18:08:31.287Z,5.87
2019-06-27T18:11:00.049Z,2.53
2019-06-27T18:13:29.049Z,3.40
2019-06-27T18:15:57.424Z,3.07
2019-06-27T18:18:27.531Z,4.37
2019-06-27T18:20:56.833Z,3.37
2019-06-27T18:23:25.520Z,3.33
2019-06-27T18:25:53.968Z,2.47
2019-06-27T18:28:23.352Z,2.50
2019-06-27T18:30:51.679Z,3.93
2019-06-27T18:33:20.253Z,2.73
2019-06-27T18:35:48.800Z,4.60
2019-06-27T18:38:17.755Z,2.43
2019-06-27T18:40:46.302Z,2.23
2019-06-27T18:43:15.044Z,2.23
2019-06-27T18:45:43.807Z,2.50
2019-06-27T18:48:12.254Z,2.30
2019-06-27T18:50:42.481Z,2.97
2019-06-27T18:53:11.106Z,2.17
2019-06-27T18:55:39.525Z,2.57
2019-06-27T18:58:08.378Z,2.93
2019-06-27T19:00:38.266Z,4.37
2019-06-27T19:03:06.712Z,2.67
2019-06-27T19:05:35.492Z,2.57
2019-06-27T19:08:04.529Z,3.00
2019-06-27T19:10:32.973Z,3.53
2019-06-27T19:13:02.820Z,2.43
2019-06-27T19:15:32.051Z,2.80
2019-06-27T19:18:02.546Z,2.97
2019-06-27T19:20:52.064Z,3.93
2019-06-27T19:23:51.836Z,3.33
2019-06-27T19:26:20.636Z,2.57
2019-06-27T19:28:49.781Z,2.30
2019-06-27T19:31:18.771Z,2.97
2019-06-27T19:33:47.343Z,3.23
2019-06-27T19:36:15.508Z,4.23
2019-06-27T19:38:43.928Z,1.80
2019-06-27T19:41:12.818Z,3.07
2019-06-27T19:43:41.525Z,2.33
2019-06-27T19:46:10.484Z,1.90
2019-06-27T19:48:39.129Z,3.40
2019-06-27T19:51:09.692Z,4.30
2019-06-27T19:53:38.242Z,4.40
2019-06-27T19:56:06.693Z,2.07
2019-06-27T19:58:34.890Z,2.87
2019-06-27T20:01:03.212Z,1.73
2019-06-27T20:03:31.578Z,3.47
2019-06-27T20:06:00.532Z,3.07
2019-06-27T20:08:28.922Z,4.50
2019-06-27T20:10:57.160Z,3.87
2019-06-27T20:13:25.511Z,1.93
2019-06-27T20:15:55.468Z,1.70
2019-06-27T20:18:23.786Z,3.90
2019-06-27T20:20:52.508Z,1.90
2019-06-27T20:23:20.825Z,1.70
2019-06-27T20:25:49.795Z,1.73
2019-06-27T20:28:18.598Z,1.50
2019-06-27T20:30:47.633Z,1.67
2019-06-27T20:33:16.387Z,2.93
2019-06-27T20:35:44.865Z,1.60
2019-06-27T20:38:13.586Z,1.80
2019-06-27T20:40:42.134Z,2.03
2019-06-27T20:43:10.804Z,2.70
2019-06-27T20:45:39.511Z,2.10
2019-06-27T20:48:07.970Z,1.60
2019-06-27T20:50:36.842Z,3.13
2019-06-27T20:53:05.206Z,3.07
2019-06-27T20:55:34.108Z,2.70
2019-06-27T20:58:03.726Z,2.53
2019-06-27T21:00:32.700Z,3.83
2019-06-27T21:03:01.702Z,1.90
2019-06-27T21:05:30.267Z,3.43
2019-06-27T21:07:58.938Z,2.47
2019-06-27T21:10:27.216Z,3.43
2019-06-27T21:12:56.345Z,2.40
2019-06-27T21:15:24.820Z,3.27
2019-06-27T21:17:52.972Z,3.20
2019-06-27T21:20:21.749Z,2.70
2019-06-27T21:22:50.227Z,2.57
2019-06-27T21:25:19.849Z,2.40
2019-06-27T21:27:48.137Z,3.03
2019-06-27T21:30:17.433Z,2.30
2019-06-27T21:32:48.316Z,2.77
2019-06-27T21:35:16.532Z,4.93
2019-06-27T21:37:44.789Z,2.90
2019-06-27T21:40:13.830Z,3.50
2019-06-27T21:42:42.585Z,2.10
2019-06-27T21:45:11.159Z,3.07
2019-06-27T21:47:41.888Z,3.67
2019-06-27T21:50:10.614Z,2.20
2019-06-27T21:52:38.799Z,3.77
2019-06-27T21:55:08.559Z,2.17
2019-06-27T21:57:37.349Z,2.13
2019-06-27T22:00:07.000Z,3.87
2019-06-27T22:02:37.610Z,3.40
2019-06-27T22:05:08.217Z,2.00
2019-06-27T22:07:36.689Z,2.37
2019-06-27T22:10:08.677Z,4.83
2019-06-27T22:12:37.334Z,2.30
2019-06-27T22:15:06.613Z,1.93
2019-06-27T22:17:36.557Z,4.90
2019-06-27T22:20:15.165Z,2.77
2019-06-27T22:22:36.193Z,2.30
2019-06-27T22:25:05.604Z,2.17
2019-06-27T22:27:34.195Z,2.70
2019-06-27T22:30:03.004Z,4.77
2019-06-27T22:32:32.886Z,2.50
2019-06-27T22:35:01.445Z,3.07
2019-06-27T22:37:29.640Z,2.63
2019-06-27T22:40:16.518Z,2.03
2019-06-27T22:43:04.447Z,3.47
2019-06-27T22:45:51.564Z,2.80
2019-06-27T22:48:20.677Z,2.73
2019-06-27T22:51:15.666Z,3.53
2019-06-27T22:54:04.012Z,2.60
2019-06-27T22:56:32.186Z,2.47
2019-06-27T22:59:01.461Z,2.63
2019-06-27T23:01:32.088Z,3.77
2019-06-27T23:04:00.997Z,3.23
2019-06-27T23:06:30.186Z,2.43
2019-06-27T23:08:58.567Z,2.47
2019-06-27T23:11:27.147Z,2.70
2019-06-27T23:13:55.599Z,2.67
2019-06-27T23:16:24.415Z,2.53
2019-06-27T23:18:53.199Z,2.83
2019-06-27T23:21:21.881Z,3.90
2019-06-27T23:23:50.479Z,3.23
2019-06-27T23:26:19.342Z,3.50
2019-06-27T23:28:47.742Z,2.80
2019-06-27T23:31:16.739Z,5.23
2019-06-27T23:33:45.406Z,3.00
2019-06-27T23:36:14.144Z,2.57
2019-06-27T23:38:42.575Z,2.83
2019-06-27T23:41:11.103Z,3.33
2019-06-27T23:43:39.730Z,5.10
2019-06-27T23:46:10.128Z,4.83
2019-06-27T23:48:39.074Z,2.70
2019-06-27T23:51:08.375Z,3.63
2019-06-27T23:53:36.597Z,5.47
2019-06-27T23:56:05.056Z,3.30
2019-06-27T23:58:33.518Z,4.47
